Aérodrome :
LOGIN :

S'inscrire | Disclaimer

   EN    FR    IT 

 










Légende :    VFR   VFR Marginal   IFR   IFR Intensif   IFR Très Intensif
Visi : 
Plafond : 
>= 8 km
>= 3000ft
5 à 8 km
1000 à 3000 ft
1500m à 5 km
500 à 1000 ft
800 à 1500m
200 à 500 ft
< 800m
< 200 ft
Symboles :   Orages  Brouillard  Fortes neiges  Fortes précipitations  Vent > 20 kt
SIGMETs :   Divers  Orages  Givrage  Turbulence  Onde Orograph.  Cendres Volcan.







- Altitude de l'aérodrome : 90 ft
- Code IATA : NTE
- Voir les cartes d'approche


LFRS - Nantes

DERNIER METAR :
  • 250430Z AUTO 26007KT 230V300 9999 BKN015 OVC021 13/11 Q1016 TEMPO 3000 -RADZ OVC004

METARs EXPIRÉS :
  • 250400Z AUTO 25006KT 9999 FEW010 OVC025 13/12 Q1016 TEMPO 3000 -RADZ OVC004
  • 250330Z AUTO 26007KT 220V280 9999 SCT010 OVC027 13/12 Q1016 TEMPO 3000 -RADZ OVC004
  • 250300Z AUTO 26007KT 230V290 9999 BKN009 OVC022 13/12 Q1016 BECMG BKN010
  • 250230Z AUTO 26007KT 230V290 9999 BKN009 BKN018 OVC023 13/12 Q1016 BECMG BKN010
  • 250200Z AUTO 26006KT 9999 SCT009 SCT013 OVC019 12/12 Q1017 BECMG BKN010

TAF AMD TAF LFRS
Valide du 25 à 03h jusqu'au 26 à 06h UTC


250306Z 2503/2606 26010KT 9999 BKN010
TEMPO 2503/2508 3000 -RADZ OVC004
BECMG 2508/2510 BKN030
TEMPO 2514/2518 28015G25KT
ATIS : +33 2 40 05 12 74
Pas de NOTAMs connus pour ce terrain.



MET'MAP, la Météo Aéronautique d'un coup d'oeil ! - Copyright ORBIFLY Décembre 2007 - Disclaimer

ORBIFLY MET'MAP TEAM :

Programmation & Développement : Alexandra Zaïnal
Conception & Développement : Baudouin d'Aumeries
Co-Programmation & Développement : Marc-Olivier Méhu
Soutien technique & logistique : Manuel Goepfert

Contact : metmap@orbifly.com




SOURCES & CREDITS :

   NOAA